createdAt,value
2022-11-26T00:00:31.416Z,22.50
2022-11-26T00:03:06.175Z,19.43
2022-11-26T00:05:34.692Z,24.43
2022-11-26T00:08:11.066Z,21.70
2022-11-26T00:10:40.834Z,29.13
2022-11-26T00:13:24.116Z,28.33
2022-11-26T00:15:53.306Z,23.33
2022-11-26T00:18:30.036Z,23.20
2022-11-26T00:21:08.691Z,23.00
2022-11-26T00:23:44.237Z,20.70
2022-11-26T00:26:18.189Z,23.03
2022-11-26T00:28:59.051Z,22.47
2022-11-26T00:31:28.602Z,23.53
2022-11-26T00:34:04.074Z,21.03
2022-11-26T00:36:34.388Z,19.50
2022-11-26T00:39:11.243Z,17.80
2022-11-26T00:41:41.625Z,15.43
2022-11-26T00:44:25.238Z,21.60
2022-11-26T00:46:54.998Z,21.10
2022-11-26T00:49:31.082Z,18.00
2022-11-26T00:51:59.574Z,18.33
2022-11-26T00:54:34.158Z,16.83
2022-11-26T00:57:03.876Z,17.67
2022-11-26T00:59:39.122Z,18.30
2022-11-26T01:02:08.100Z,23.23
2022-11-26T01:04:43.243Z,21.70
2022-11-26T01:07:12.235Z,17.93
2022-11-26T01:09:47.096Z,17.00
2022-11-26T01:12:17.327Z,18.80
2022-11-26T01:14:52.156Z,17.70
2022-11-26T01:17:20.328Z,16.63
2022-11-26T01:19:55.203Z,26.73
2022-11-26T01:22:32.122Z,17.10
2022-11-26T01:25:00.616Z,21.63
2022-11-26T01:27:37.135Z,17.83
2022-11-26T01:30:06.056Z,17.13
2022-11-26T01:32:41.131Z,18.17
2022-11-26T01:35:10.616Z,18.97
2022-11-26T01:37:45.168Z,16.57
2022-11-26T01:40:40.566Z,20.57
2022-11-26T01:43:23.308Z,17.87
2022-11-26T01:45:51.673Z,19.00
2022-11-26T01:48:37.321Z,18.73
2022-11-26T01:51:07.371Z,19.33
2022-11-26T01:53:50.364Z,18.13
2022-11-26T01:56:28.855Z,23.83
2022-11-26T01:59:12.309Z,16.77
2022-11-26T02:01:41.566Z,22.97
2022-11-26T02:04:21.388Z,15.60
2022-11-26T02:06:52.778Z,19.63
2022-11-26T02:09:29.452Z,17.43
2022-11-26T02:11:59.006Z,20.40
2022-11-26T02:14:39.484Z,16.83
2022-11-26T02:17:30.135Z,21.47
2022-11-26T02:20:38.282Z,17.93
2022-11-26T02:23:51.893Z,17.30
2022-11-26T02:27:05.198Z,17.33
2022-11-26T02:30:09.987Z,23.37
2022-11-26T02:33:04.169Z,22.13
2022-11-26T02:35:38.111Z,19.50
2022-11-26T02:38:17.357Z,22.83
2022-11-26T02:40:45.806Z,16.50
2022-11-26T02:43:23.266Z,16.67
2022-11-26T02:45:56.504Z,20.90
2022-11-26T02:48:35.245Z,17.77
2022-11-26T02:51:06.904Z,20.00
2022-11-26T02:53:43.203Z,25.57
2022-11-26T02:56:15.554Z,19.80
2022-11-26T02:58:51.281Z,19.43
2022-11-26T03:01:29.618Z,19.43
2022-11-26T03:04:08.347Z,19.20
2022-11-26T03:06:37.701Z,21.10
2022-11-26T03:09:13.171Z,22.43
2022-11-26T03:11:41.413Z,17.97
2022-11-26T03:14:16.153Z,18.93
2022-11-26T03:16:47.080Z,16.00
2022-11-26T03:19:22.217Z,19.67
2022-11-26T03:21:57.523Z,16.33
2022-11-26T03:24:32.282Z,21.23
2022-11-26T03:27:00.662Z,17.13
2022-11-26T03:29:35.287Z,14.57
2022-11-26T03:32:05.554Z,15.67
2022-11-26T03:34:40.557Z,19.20
2022-11-26T03:37:09.244Z,16.43
2022-11-26T03:39:44.225Z,21.77
2022-11-26T03:42:12.513Z,16.60
2022-11-26T03:44:47.307Z,19.10
2022-11-26T03:47:16.987Z,19.93
2022-11-26T03:49:52.242Z,16.27
2022-11-26T03:52:20.682Z,15.77
2022-11-26T03:54:55.225Z,19.77
2022-11-26T03:57:23.396Z,19.40
2022-11-26T03:59:58.436Z,16.57
2022-11-26T04:02:28.214Z,13.87
2022-11-26T04:05:03.448Z,16.93
2022-11-26T04:07:32.327Z,15.73
2022-11-26T04:10:07.419Z,18.80
2022-11-26T04:12:35.638Z,18.87
2022-11-26T04:15:11.465Z,16.60
2022-11-26T04:17:41.227Z,13.83
2022-11-26T04:20:24.325Z,15.83
2022-11-26T04:22:59.464Z,18.17
2022-11-26T04:25:34.335Z,13.20
2022-11-26T04:28:03.125Z,19.47
2022-11-26T04:30:38.326Z,24.80
2022-11-26T04:33:08.072Z,19.90
2022-11-26T04:35:43.354Z,17.63
2022-11-26T04:38:12.391Z,17.33
2022-11-26T04:40:47.383Z,22.00
2022-11-26T04:43:16.031Z,14.47
2022-11-26T04:45:51.368Z,17.50
2022-11-26T04:48:21.281Z,12.27
2022-11-26T04:50:57.372Z,17.67
2022-11-26T04:53:25.921Z,18.57
2022-11-26T04:56:01.310Z,14.90
2022-11-26T04:58:29.582Z,21.37
2022-11-26T05:01:04.555Z,19.47
2022-11-26T05:03:34.703Z,19.03
2022-11-26T05:06:09.298Z,15.20
2022-11-26T05:08:37.706Z,14.83
2022-11-26T05:11:13.308Z,23.97
2022-11-26T05:13:41.606Z,16.93
2022-11-26T05:16:16.405Z,14.33
2022-11-26T05:18:52.502Z,18.27
2022-11-26T05:21:33.389Z,18.50
2022-11-26T05:24:01.743Z,22.00
2022-11-26T05:26:36.510Z,20.60
2022-11-26T05:29:04.900Z,19.90
2022-11-26T05:31:39.434Z,23.37
2022-11-26T05:34:09.483Z,22.37
2022-11-26T05:36:44.477Z,17.87
2022-11-26T05:39:12.723Z,16.27
2022-11-26T05:41:47.377Z,17.90
2022-11-26T05:44:15.830Z,18.83
2022-11-26T05:46:51.460Z,19.07
2022-11-26T05:49:21.626Z,20.63
2022-11-26T05:51:56.532Z,14.90
2022-11-26T05:54:25.453Z,16.17
2022-11-26T05:57:00.665Z,18.23
2022-11-26T05:59:29.363Z,18.03
2022-11-26T06:02:04.412Z,15.63
2022-11-26T06:04:34.276Z,21.07
2022-11-26T06:07:09.436Z,15.00
2022-11-26T06:09:38.360Z,16.47
2022-11-26T06:12:14.438Z,15.50
2022-11-26T06:14:43.609Z,18.97
2022-11-26T06:17:18.546Z,15.27
2022-11-26T06:19:54.967Z,17.33
2022-11-26T06:22:36.460Z,14.97
2022-11-26T06:25:11.364Z,13.07
2022-11-26T06:27:40.012Z,21.87
2022-11-26T06:30:16.367Z,22.47
2022-11-26T06:32:44.893Z,17.23
2022-11-26T06:35:21.376Z,17.97
2022-11-26T06:37:49.574Z,16.67
2022-11-26T06:40:26.539Z,16.77
2022-11-26T06:42:55.515Z,20.77
2022-11-26T06:45:31.558Z,18.67
2022-11-26T06:48:00.143Z,16.77
2022-11-26T06:50:36.525Z,22.33
2022-11-26T06:53:04.729Z,18.43
2022-11-26T06:55:39.413Z,19.10
2022-11-26T06:58:07.669Z,16.50
2022-11-26T07:00:42.364Z,16.63
2022-11-26T07:03:11.113Z,20.97
2022-11-26T07:05:47.435Z,18.70
2022-11-26T07:08:15.862Z,21.43
2022-11-26T07:10:51.675Z,17.30
2022-11-26T07:13:20.172Z,15.07
2022-11-26T07:15:54.705Z,20.07
2022-11-26T07:18:23.080Z,14.83
2022-11-26T07:21:06.448Z,17.90
2022-11-26T07:23:34.894Z,13.73
2022-11-26T07:26:11.495Z,25.80
2022-11-26T07:28:39.936Z,22.90
2022-11-26T07:31:19.663Z,18.50
2022-11-26T07:33:48.057Z,20.53
2022-11-26T07:36:26.448Z,19.30
2022-11-26T07:38:55.698Z,16.70
2022-11-26T07:41:30.451Z,15.43
2022-11-26T07:43:59.354Z,21.73
2022-11-26T07:46:34.702Z,18.27
2022-11-26T07:49:02.993Z,18.53
2022-11-26T07:51:40.653Z,16.23
2022-11-26T07:54:10.244Z,18.47
2022-11-26T07:56:45.469Z,17.53
2022-11-26T07:59:13.913Z,13.50
2022-11-26T08:01:48.781Z,13.60
2022-11-26T08:04:17.081Z,19.33
2022-11-26T08:06:53.548Z,21.70
2022-11-26T08:09:21.963Z,19.03
2022-11-26T08:11:56.496Z,22.83
2022-11-26T08:14:25.031Z,15.67
2022-11-26T08:17:00.526Z,14.80
2022-11-26T08:19:48.484Z,14.63
2022-11-26T08:22:25.665Z,14.73
2022-11-26T08:24:53.876Z,18.00
2022-11-26T08:27:28.500Z,20.10
2022-11-26T08:29:56.956Z,16.23
2022-11-26T08:32:31.520Z,12.77
2022-11-26T08:34:59.949Z,18.47
2022-11-26T08:37:36.633Z,15.47
2022-11-26T08:40:05.701Z,15.63
2022-11-26T08:42:40.663Z,17.13
2022-11-26T08:45:09.793Z,15.63
2022-11-26T08:47:44.664Z,17.27
2022-11-26T08:50:14.962Z,16.77
2022-11-26T08:52:51.489Z,17.20
2022-11-26T08:55:23.955Z,15.70
2022-11-26T08:58:01.543Z,16.57
2022-11-26T09:00:30.393Z,19.90
2022-11-26T09:03:05.624Z,13.57
2022-11-26T09:05:33.884Z,14.10
2022-11-26T09:08:11.363Z,16.00
2022-11-26T09:10:39.686Z,16.17
2022-11-26T09:13:19.709Z,15.30
2022-11-26T09:15:50.134Z,20.20
2022-11-26T09:18:24.523Z,16.83
2022-11-26T09:21:04.505Z,15.97
2022-11-26T09:23:41.530Z,17.77
2022-11-26T09:26:10.114Z,16.87
2022-11-26T09:28:45.544Z,16.20
2022-11-26T09:31:13.931Z,13.70
2022-11-26T09:33:48.492Z,18.73
2022-11-26T09:36:18.743Z,16.27
2022-11-26T09:38:55.692Z,17.03
2022-11-26T09:41:44.384Z,12.10
2022-11-26T09:44:33.551Z,16.57
2022-11-26T09:47:12.718Z,14.13
2022-11-26T09:49:55.538Z,14.53
2022-11-26T09:52:27.000Z,10.03
2022-11-26T09:55:10.735Z,17.30
2022-11-26T09:57:43.279Z,16.17
2022-11-26T10:00:31.923Z,16.03
2022-11-26T10:03:00.614Z,13.20
2022-11-26T10:05:50.626Z,14.63
2022-11-26T10:08:54.553Z,14.77
2022-11-26T10:11:31.537Z,14.13
2022-11-26T10:14:17.796Z,16.47
2022-11-26T10:17:01.243Z,13.33
2022-11-26T10:19:54.819Z,16.40
2022-11-26T10:22:33.660Z,15.87
2022-11-26T10:25:10.563Z,12.50
2022-11-26T10:27:47.648Z,12.60
2022-11-26T10:30:24.363Z,19.47
2022-11-26T10:33:00.544Z,11.97
2022-11-26T10:35:30.647Z,16.07
2022-11-26T10:38:05.643Z,9.73
2022-11-26T10:40:34.308Z,13.87
2022-11-26T10:43:19.660Z,10.93
2022-11-26T10:45:49.858Z,12.03
2022-11-26T10:48:30.704Z,11.70
2022-11-26T10:51:06.333Z,13.57
2022-11-26T10:53:56.661Z,14.03
2022-11-26T10:56:39.597Z,10.00
2022-11-26T10:59:21.977Z,11.80
2022-11-26T11:01:57.860Z,11.80
2022-11-26T11:04:31.391Z,16.33
2022-11-26T11:07:12.071Z,13.00
2022-11-26T11:09:40.728Z,12.87
2022-11-26T11:12:30.646Z,11.53
2022-11-26T11:15:20.393Z,12.83
2022-11-26T11:18:01.680Z,14.83
2022-11-26T11:20:40.148Z,12.40
2022-11-26T11:23:52.199Z,12.33
2022-11-26T11:26:23.923Z,15.63
2022-11-26T11:29:00.597Z,11.87
2022-11-26T11:31:31.340Z,14.07
2022-11-26T11:34:27.651Z,11.00
2022-11-26T11:37:03.126Z,15.13
2022-11-26T11:39:40.719Z,13.07
2022-11-26T11:42:22.303Z,12.43
2022-11-26T11:44:59.743Z,13.83
2022-11-26T11:47:39.008Z,18.83
2022-11-26T11:50:28.683Z,13.77
2022-11-26T11:53:31.122Z,11.13
2022-11-26T11:56:17.006Z,14.20
2022-11-26T11:59:14.245Z,11.87
2022-11-26T12:02:12.032Z,12.87
2022-11-26T12:04:54.667Z,14.00
2022-11-26T12:07:42.731Z,12.13
2022-11-26T12:10:15.862Z,15.17
2022-11-26T12:12:54.853Z,13.13
2022-11-26T12:15:27.328Z,15.00
2022-11-26T12:18:08.879Z,14.53
2022-11-26T12:21:03.660Z,16.13
2022-11-26T12:23:43.762Z,11.90
2022-11-26T12:26:16.400Z,15.97
2022-11-26T12:29:00.683Z,12.17
2022-11-26T12:31:34.590Z,13.67
2022-11-26T12:34:14.785Z,12.40
2022-11-26T12:36:51.230Z,12.50
2022-11-26T12:39:40.932Z,13.17
2022-11-26T12:42:18.426Z,11.87
2022-11-26T12:44:58.905Z,13.40
2022-11-26T12:47:33.027Z,11.90
2022-11-26T12:50:19.910Z,14.23
2022-11-26T12:52:57.235Z,17.73
2022-11-26T12:55:39.762Z,13.50
2022-11-26T12:58:15.894Z,15.23
2022-11-26T13:00:50.947Z,11.97
2022-11-26T13:03:23.929Z,13.57
2022-11-26T13:06:05.725Z,10.33
2022-11-26T13:08:46.032Z,13.40
2022-11-26T13:11:34.821Z,12.53
2022-11-26T13:14:12.741Z,13.20
2022-11-26T13:16:54.881Z,9.20
2022-11-26T13:19:32.516Z,12.63
2022-11-26T13:22:52.749Z,11.20
2022-11-26T13:26:08.728Z,17.13
2022-11-26T13:28:53.532Z,11.77
2022-11-26T13:31:42.004Z,11.03
2022-11-26T13:34:38.331Z,10.77
2022-11-26T13:37:36.935Z,10.37
2022-11-26T13:40:47.003Z,10.90
2022-11-26T13:43:49.865Z,12.33
2022-11-26T13:46:22.474Z,10.77
2022-11-26T13:49:06.962Z,10.97
2022-11-26T13:51:41.093Z,9.53
2022-11-26T13:54:23.824Z,10.67
2022-11-26T13:57:02.694Z,12.93
2022-11-26T13:59:39.774Z,11.43
2022-11-26T14:02:44.578Z,10.13
2022-11-26T14:05:23.020Z,9.60
2022-11-26T14:07:52.044Z,12.43
2022-11-26T14:10:50.871Z,10.23
2022-11-26T14:13:19.100Z,10.13
2022-11-26T14:16:19.062Z,10.87
2022-11-26T14:19:08.615Z,10.90
2022-11-26T14:22:14.935Z,11.97
2022-11-26T14:24:57.522Z,9.67
2022-11-26T14:27:33.817Z,10.23
2022-11-26T14:30:25.986Z,10.13
2022-11-26T14:33:14.923Z,9.63
2022-11-26T14:35:55.612Z,10.67
2022-11-26T14:38:33.790Z,12.40
2022-11-26T14:41:02.984Z,12.53
2022-11-26T14:43:37.816Z,9.17
2022-11-26T14:46:12.670Z,12.30
2022-11-26T14:48:58.563Z,8.67
2022-11-26T14:51:28.750Z,8.77
2022-11-26T14:54:04.016Z,12.80
2022-11-26T14:56:32.476Z,11.10
2022-11-26T14:59:09.868Z,12.07
2022-11-26T15:01:38.126Z,13.27
2022-11-26T15:04:15.823Z,12.37
2022-11-26T15:06:45.694Z,13.37
2022-11-26T15:09:22.831Z,10.13
2022-11-26T15:11:56.620Z,11.70
2022-11-26T15:14:36.005Z,12.63
2022-11-26T15:17:06.817Z,11.30
2022-11-26T15:19:45.839Z,16.17
2022-11-26T15:22:24.132Z,10.83
2022-11-26T15:25:00.891Z,11.67
2022-11-26T15:27:31.913Z,13.67
2022-11-26T15:30:07.090Z,12.60
2022-11-26T15:32:35.859Z,11.33
2022-11-26T15:35:13.015Z,11.63
2022-11-26T15:37:41.451Z,12.53
2022-11-26T15:40:26.855Z,12.73
2022-11-26T15:42:58.489Z,14.83
2022-11-26T15:45:41.970Z,19.07
2022-11-26T15:48:27.619Z,13.53
2022-11-26T15:51:08.894Z,13.63
2022-11-26T15:53:40.521Z,13.90
2022-11-26T15:56:16.937Z,13.30
2022-11-26T15:58:50.534Z,13.03
2022-11-26T16:01:28.958Z,15.00
2022-11-26T16:04:00.505Z,11.30
2022-11-26T16:06:48.970Z,11.77
2022-11-26T16:09:28.135Z,15.00
2022-11-26T16:12:07.979Z,12.53
2022-11-26T16:14:38.343Z,10.70
2022-11-26T16:17:19.121Z,12.23
2022-11-26T16:19:51.899Z,15.50
2022-11-26T16:22:36.938Z,16.27
2022-11-26T16:25:07.548Z,12.83
2022-11-26T16:27:47.728Z,12.33
2022-11-26T16:30:19.614Z,15.93
2022-11-26T16:32:54.106Z,11.57
2022-11-26T16:35:44.556Z,12.43
2022-11-26T16:38:27.880Z,12.97
2022-11-26T16:40:56.241Z,12.13
2022-11-26T16:43:31.009Z,12.53
2022-11-26T16:46:00.444Z,13.20
2022-11-26T16:48:35.931Z,13.37
2022-11-26T16:51:04.315Z,16.40
2022-11-26T16:53:39.895Z,14.10
2022-11-26T16:56:18.763Z,12.00
2022-11-26T16:58:54.075Z,14.17
2022-11-26T17:01:22.451Z,15.17
2022-11-26T17:03:57.061Z,15.37
2022-11-26T17:06:30.977Z,14.37
2022-11-26T17:09:08.111Z,11.83
2022-11-26T17:11:36.257Z,13.27
2022-11-26T17:14:11.015Z,14.80
2022-11-26T17:16:42.012Z,14.30
2022-11-26T17:19:23.013Z,10.87
2022-11-26T17:21:58.087Z,14.40
2022-11-26T17:24:33.944Z,12.27
2022-11-26T17:27:10.043Z,11.43
2022-11-26T17:29:42.842Z,13.23
2022-11-26T17:32:20.036Z,13.93
2022-11-26T17:34:49.318Z,11.63
2022-11-26T17:37:31.211Z,17.87
2022-11-26T17:40:01.618Z,13.60
2022-11-26T17:42:37.223Z,14.50
2022-11-26T17:45:06.656Z,14.67
2022-11-26T17:47:42.133Z,16.57
2022-11-26T17:50:19.417Z,14.70
2022-11-26T17:52:55.090Z,15.77
2022-11-26T17:55:27.149Z,17.97
2022-11-26T17:58:02.958Z,15.97
2022-11-26T18:00:31.352Z,14.30
2022-11-26T18:03:06.114Z,9.47
2022-11-26T18:05:39.107Z,15.90
2022-11-26T18:08:17.057Z,15.17
2022-11-26T18:10:47.144Z,14.70
2022-11-26T18:13:22.071Z,14.83
2022-11-26T18:15:50.455Z,10.73
2022-11-26T18:18:26.003Z,16.10
2022-11-26T18:21:00.614Z,15.90
2022-11-26T18:23:42.068Z,15.07
2022-11-26T18:26:18.136Z,14.23
2022-11-26T18:28:53.100Z,14.97
2022-11-26T18:31:21.489Z,14.43
2022-11-26T18:33:57.200Z,10.63
2022-11-26T18:36:25.699Z,13.47
2022-11-26T18:39:01.008Z,14.03
2022-11-26T18:41:30.825Z,14.70
2022-11-26T18:44:06.213Z,16.23
2022-11-26T18:46:34.761Z,12.63
2022-11-26T18:49:10.217Z,11.30
2022-11-26T18:51:38.971Z,14.10
2022-11-26T18:54:14.224Z,13.87
2022-11-26T18:56:43.729Z,22.77
2022-11-26T18:59:20.192Z,11.20
2022-11-26T19:01:49.554Z,10.47
2022-11-26T19:04:25.046Z,11.13
2022-11-26T19:06:54.122Z,13.47
2022-11-26T19:09:31.182Z,11.43
2022-11-26T19:12:01.126Z,12.23
2022-11-26T19:14:36.036Z,16.23
2022-11-26T19:17:04.387Z,15.67
2022-11-26T19:19:40.196Z,17.23
2022-11-26T19:22:15.462Z,12.43
2022-11-26T19:24:57.212Z,13.93
2022-11-26T19:27:26.931Z,13.13
2022-11-26T19:30:02.123Z,15.67
2022-11-26T19:32:30.521Z,15.30
2022-11-26T19:35:06.245Z,12.43
2022-11-26T19:37:35.310Z,16.83
2022-11-26T19:40:11.366Z,12.60
2022-11-26T19:42:41.160Z,9.63
2022-11-26T19:45:17.282Z,12.63
2022-11-26T19:47:46.122Z,11.17
2022-11-26T19:50:21.069Z,11.33
2022-11-26T19:52:49.302Z,10.00
2022-11-26T19:55:24.345Z,11.70
2022-11-26T19:57:54.203Z,11.13
2022-11-26T20:00:30.344Z,10.23
2022-11-26T20:02:58.820Z,11.00
2022-11-26T20:05:34.306Z,11.20
2022-11-26T20:08:02.962Z,10.83
2022-11-26T20:10:39.134Z,15.37
2022-11-26T20:13:10.371Z,11.10
2022-11-26T20:15:47.171Z,14.13
2022-11-26T20:18:16.363Z,9.13
2022-11-26T20:20:51.194Z,10.97
2022-11-26T20:23:26.823Z,11.77
2022-11-26T20:26:02.189Z,12.87
2022-11-26T20:28:32.098Z,8.47
2022-11-26T20:31:07.538Z,13.17
2022-11-26T20:33:36.363Z,8.87
2022-11-26T20:36:14.108Z,12.60
2022-11-26T20:38:42.705Z,10.93
2022-11-26T20:41:19.354Z,10.40
2022-11-26T20:43:53.539Z,11.07
2022-11-26T20:46:32.249Z,11.90
2022-11-26T20:49:00.559Z,9.13
2022-11-26T20:51:35.128Z,8.30
2022-11-26T20:54:04.128Z,12.03
2022-11-26T20:56:40.143Z,11.23
2022-11-26T20:59:10.059Z,11.00
2022-11-26T21:01:45.236Z,10.57
2022-11-26T21:04:13.853Z,8.30
2022-11-26T21:06:51.201Z,8.80
2022-11-26T21:09:19.395Z,9.80
2022-11-26T21:11:54.289Z,11.13
2022-11-26T21:14:24.676Z,9.97
2022-11-26T21:16:59.390Z,9.07
2022-11-26T21:19:27.985Z,7.63
2022-11-26T21:22:03.213Z,9.10
2022-11-26T21:24:31.361Z,9.93
2022-11-26T21:27:06.458Z,9.13
2022-11-26T21:29:36.406Z,10.17
2022-11-26T21:32:11.345Z,11.67
2022-11-26T21:34:40.001Z,8.83
2022-11-26T21:37:15.259Z,10.57
2022-11-26T21:39:43.962Z,7.27
2022-11-26T21:42:19.135Z,9.47
2022-11-26T21:44:49.530Z,7.17
2022-11-26T21:47:24.360Z,9.77
2022-11-26T21:49:52.839Z,10.93
2022-11-26T21:52:28.187Z,9.77
2022-11-26T21:54:59.615Z,8.83
2022-11-26T21:57:39.245Z,13.60
2022-11-26T22:00:11.635Z,10.13
2022-11-26T22:02:46.295Z,9.77
2022-11-26T22:05:14.943Z,10.17
2022-11-26T22:07:50.287Z,10.20
2022-11-26T22:10:18.985Z,7.03
2022-11-26T22:12:54.278Z,10.00
2022-11-26T22:15:24.159Z,8.43
2022-11-26T22:17:59.379Z,10.27
2022-11-26T22:20:27.869Z,7.63
2022-11-26T22:23:02.230Z,5.93
2022-11-26T22:25:37.520Z,10.03
2022-11-26T22:28:13.448Z,8.87
2022-11-26T22:30:43.501Z,9.57
2022-11-26T22:33:18.172Z,6.47
2022-11-26T22:35:53.333Z,6.67
2022-11-26T22:38:21.724Z,7.87
2022-11-26T22:40:56.218Z,8.97
2022-11-26T22:43:24.907Z,7.37
2022-11-26T22:46:01.290Z,7.40
2022-11-26T22:48:29.907Z,6.77
2022-11-26T22:51:05.274Z,6.30
2022-11-26T22:53:34.786Z,8.40
2022-11-26T22:56:11.291Z,8.30
2022-11-26T22:58:39.717Z,7.07
2022-11-26T23:01:17.335Z,6.20
2022-11-26T23:03:45.766Z,5.50
2022-11-26T23:06:22.493Z,8.03
2022-11-26T23:08:52.069Z,6.97
2022-11-26T23:11:29.431Z,6.03
2022-11-26T23:13:58.827Z,6.40
2022-11-26T23:16:35.326Z,9.40
2022-11-26T23:19:04.679Z,6.27
2022-11-26T23:21:49.457Z,6.20
2022-11-26T23:24:24.535Z,6.53
2022-11-26T23:26:59.285Z,5.87
2022-11-26T23:29:27.447Z,5.57
2022-11-26T23:32:04.470Z,6.37
2022-11-26T23:34:32.892Z,4.47
2022-11-26T23:37:08.461Z,7.40
2022-11-26T23:39:36.783Z,6.27
2022-11-26T23:42:12.515Z,6.77
2022-11-26T23:44:40.895Z,5.03
2022-11-26T23:47:17.343Z,5.93
2022-11-26T23:49:45.716Z,6.63
2022-11-26T23:52:20.366Z,4.50
2022-11-26T23:54:48.535Z,3.50
2022-11-26T23:57:23.370Z,4.40
2022-11-26T23:59:51.798Z,4.90
